createdAt,value
2023-01-20T00:01:09.868Z,98766.50
2023-01-20T00:03:36.885Z,98765.56
2023-01-20T00:06:03.695Z,98776.22
2023-01-20T00:08:30.585Z,98775.72
2023-01-20T00:10:57.149Z,98775.34
2023-01-20T00:13:23.835Z,98779.25
2023-01-20T00:15:50.409Z,98786.91
2023-01-20T00:18:16.911Z,98793.59
2023-01-20T00:20:43.640Z,98798.25
2023-01-20T00:23:10.147Z,98814.06
2023-01-20T00:25:36.950Z,98819.03
2023-01-20T00:28:04.164Z,98825.09
2023-01-20T00:30:31.123Z,98822.06
2023-01-20T00:32:57.621Z,98833.34
2023-01-20T00:35:24.165Z,98846.78
2023-01-20T00:37:50.670Z,98850.41
2023-01-20T00:40:17.335Z,98857.00
2023-01-20T00:42:43.840Z,98868.59
2023-01-20T00:45:10.747Z,98873.72
2023-01-20T00:47:37.713Z,98885.69
2023-01-20T00:50:04.636Z,98887.34
2023-01-20T00:52:31.384Z,98890.75
2023-01-20T00:54:57.877Z,98896.47
2023-01-20T00:57:24.343Z,98902.63
2023-01-20T00:59:50.803Z,98911.75
2023-01-20T01:02:17.374Z,98917.84
2023-01-20T01:04:43.897Z,98925.34
2023-01-20T01:07:10.427Z,98924.31
2023-01-20T01:09:37.086Z,98939.13
2023-01-20T01:12:03.673Z,98932.19
2023-01-20T01:14:31.640Z,98942.22
2023-01-20T01:16:58.140Z,98954.03
2023-01-20T01:19:24.882Z,98963.50
2023-01-20T01:21:51.444Z,98964.13
2023-01-20T01:24:17.975Z,98974.06
2023-01-20T01:26:44.474Z,98979.25
2023-01-20T01:29:11.476Z,98981.78
2023-01-20T01:31:39.083Z,98988.72
2023-01-20T01:34:05.758Z,98986.25
2023-01-20T01:36:32.287Z,98985.41
2023-01-20T01:38:59.286Z,99009.59
2023-01-20T01:41:26.582Z,99005.59
2023-01-20T01:44:07.685Z,99024.09
2023-01-20T01:46:34.617Z,99026.06
2023-01-20T01:49:07.316Z,99035.88
2023-01-20T01:51:42.771Z,99043.50
2023-01-20T01:54:13.940Z,99045.69
2023-01-20T01:56:43.600Z,99043.44
2023-01-20T01:59:12.487Z,99047.44
2023-01-20T02:01:42.943Z,99051.00
2023-01-20T02:04:13.681Z,99069.19
2023-01-20T02:06:45.777Z,99072.97
2023-01-20T02:09:13.307Z,99085.50
2023-01-20T02:11:48.324Z,99076.69
2023-01-20T02:14:20.408Z,99085.59
2023-01-20T02:17:01.963Z,99081.34
2023-01-20T02:19:46.305Z,99087.66
2023-01-20T02:22:35.954Z,99092.47
2023-01-20T02:25:40.481Z,99101.94
2023-01-20T02:28:15.736Z,99111.31
2023-01-20T02:30:51.053Z,99113.16
2023-01-20T02:33:23.530Z,99135.88
2023-01-20T02:35:55.812Z,99126.59
2023-01-20T02:38:47.807Z,99133.34
2023-01-20T02:41:23.772Z,99139.19
2023-01-20T02:44:00.500Z,99154.97
2023-01-20T02:46:34.117Z,99156.06
2023-01-20T02:49:27.632Z,99157.25
2023-01-20T02:52:03.072Z,99169.38
2023-01-20T02:54:33.816Z,99171.88
2023-01-20T02:57:05.351Z,99178.16
2023-01-20T02:59:36.706Z,99172.81
2023-01-20T03:02:06.436Z,99187.53
2023-01-20T03:04:46.101Z,99201.78
2023-01-20T03:07:15.384Z,99205.19
2023-01-20T03:09:46.535Z,99209.53
2023-01-20T03:12:24.195Z,99224.06
2023-01-20T03:14:52.383Z,99228.31
2023-01-20T03:17:20.073Z,99228.97
2023-01-20T03:19:47.352Z,99243.75
2023-01-20T03:22:15.454Z,99247.75
2023-01-20T03:24:44.000Z,99256.75
2023-01-20T03:27:11.578Z,99261.88
2023-01-20T03:29:38.143Z,99275.28
2023-01-20T03:32:07.853Z,99274.56
2023-01-20T03:34:38.322Z,99282.88
2023-01-20T03:37:05.649Z,99278.94
2023-01-20T03:39:33.234Z,99305.72
2023-01-20T03:42:21.395Z,99301.38
2023-01-20T03:45:06.985Z,99314.81
2023-01-20T03:48:02.488Z,99324.56
2023-01-20T03:50:31.914Z,99334.31
2023-01-20T03:53:13.585Z,99352.91
2023-01-20T03:55:58.107Z,99363.06
2023-01-20T03:58:30.443Z,99383.84
2023-01-20T04:00:57.833Z,99379.16
2023-01-20T04:03:29.418Z,99391.25
2023-01-20T04:06:02.720Z,99407.88
2023-01-20T04:08:33.719Z,99423.91
2023-01-20T04:11:03.631Z,99430.16
2023-01-20T04:13:30.385Z,99435.28
2023-01-20T04:15:59.610Z,99443.56
2023-01-20T04:18:26.183Z,99450.59
2023-01-20T04:21:03.492Z,99469.03
2023-01-20T04:23:35.227Z,99470.38
2023-01-20T04:26:01.716Z,99485.59
2023-01-20T04:28:28.420Z,99498.13
2023-01-20T04:30:55.060Z,99499.50
2023-01-20T04:33:21.619Z,99509.88
2023-01-20T04:35:48.107Z,99519.16
2023-01-20T04:38:14.592Z,99519.22
2023-01-20T04:40:41.283Z,99531.97
2023-01-20T04:43:09.988Z,99538.63
2023-01-20T04:45:36.531Z,99541.41
2023-01-20T04:48:07.372Z,99556.34
2023-01-20T04:50:37.840Z,99583.94
2023-01-20T04:53:04.335Z,99576.13
2023-01-20T04:55:32.782Z,99586.25
2023-01-20T04:57:59.257Z,99604.59
2023-01-20T05:00:25.799Z,99613.09
2023-01-20T05:02:52.987Z,99623.50
2023-01-20T05:05:19.527Z,99660.31
2023-01-20T05:07:46.036Z,99648.59
2023-01-20T05:10:13.372Z,99652.28
2023-01-20T05:12:41.210Z,99655.81
2023-01-20T05:15:08.163Z,99656.16
2023-01-20T05:17:34.703Z,99664.88
2023-01-20T05:20:01.164Z,99667.09
2023-01-20T05:22:29.494Z,99683.59
2023-01-20T05:24:56.068Z,99689.91
2023-01-20T05:27:22.559Z,99690.69
2023-01-20T05:29:49.455Z,99699.91
2023-01-20T05:32:16.006Z,99714.94
2023-01-20T05:34:42.520Z,99716.13
2023-01-20T05:37:09.032Z,99722.69
2023-01-20T05:39:35.523Z,99743.59
2023-01-20T05:42:02.566Z,99745.31
2023-01-20T05:44:29.076Z,99741.25
2023-01-20T05:46:55.571Z,99746.88
2023-01-20T05:49:22.143Z,99753.75
2023-01-20T05:51:48.746Z,99759.28
2023-01-20T05:54:15.363Z,99777.28
2023-01-20T05:56:41.826Z,99771.63
2023-01-20T05:59:08.357Z,99780.53
2023-01-20T06:01:34.936Z,99785.03
2023-01-20T06:04:01.689Z,99797.81
2023-01-20T06:06:28.288Z,99801.72
2023-01-20T06:08:54.899Z,99803.72
2023-01-20T06:11:21.627Z,99810.25
2023-01-20T06:13:48.664Z,99814.16
2023-01-20T06:16:17.602Z,99834.22
2023-01-20T06:18:44.328Z,99837.22
2023-01-20T06:21:11.134Z,99836.56
2023-01-20T06:23:37.978Z,99844.94
2023-01-20T06:26:07.436Z,99832.00
2023-01-20T06:28:34.637Z,99838.00
2023-01-20T06:31:07.060Z,99857.16
2023-01-20T06:33:34.266Z,99872.03
2023-01-20T06:36:01.088Z,99872.34
2023-01-20T06:38:30.885Z,99879.91
2023-01-20T06:41:02.126Z,99890.47
2023-01-20T06:43:33.961Z,99886.69
2023-01-20T06:46:06.212Z,99896.56
2023-01-20T06:48:33.512Z,99901.94
2023-01-20T06:51:04.978Z,99896.84
2023-01-20T06:53:31.592Z,99900.13
2023-01-20T06:56:00.372Z,99908.97
2023-01-20T06:58:29.313Z,99909.78
2023-01-20T07:00:57.372Z,99907.66
2023-01-20T07:03:24.460Z,99902.22
2023-01-20T07:05:56.508Z,99909.88
2023-01-20T07:08:23.133Z,99918.22
2023-01-20T07:10:49.611Z,99917.66
2023-01-20T07:13:16.133Z,99918.53
2023-01-20T07:15:42.695Z,99924.66
2023-01-20T07:18:09.332Z,99934.41
2023-01-20T07:20:35.943Z,99928.56
2023-01-20T07:23:02.587Z,99934.16
2023-01-20T07:25:29.441Z,99938.91
2023-01-20T07:27:57.741Z,99944.94
2023-01-20T07:30:25.024Z,99941.53
2023-01-20T07:32:52.191Z,99956.47
2023-01-20T07:35:19.038Z,99949.78
2023-01-20T07:37:45.523Z,99958.53
2023-01-20T07:40:12.468Z,99956.41
2023-01-20T07:42:39.566Z,99958.47
2023-01-20T07:45:06.729Z,99966.03
2023-01-20T07:47:33.316Z,99971.16
2023-01-20T07:50:00.536Z,99983.38
2023-01-20T07:52:27.038Z,99988.56
2023-01-20T07:54:53.720Z,99997.69
2023-01-20T07:57:20.235Z,99991.84
2023-01-20T07:59:46.749Z,100001.19
2023-01-20T08:02:13.225Z,99995.84
2023-01-20T08:04:40.499Z,100009.81
2023-01-20T08:07:07.081Z,100010.59
2023-01-20T08:09:33.637Z,100014.59
2023-01-20T08:12:01.878Z,100014.78
2023-01-20T08:14:28.454Z,100014.66
2023-01-20T08:16:55.021Z,100018.47
2023-01-20T08:19:21.578Z,100026.63
2023-01-20T08:21:48.053Z,100044.13
2023-01-20T08:24:14.771Z,100034.59
2023-01-20T08:26:41.290Z,100041.81
2023-01-20T08:29:09.550Z,100051.00
2023-01-20T08:31:36.693Z,100043.66
2023-01-20T08:34:04.580Z,100059.50
2023-01-20T08:36:34.826Z,100065.38
2023-01-20T08:39:04.468Z,100085.31
2023-01-20T08:41:36.868Z,100089.25
2023-01-20T08:44:05.807Z,100092.28
2023-01-20T08:46:33.217Z,100110.50
2023-01-20T08:48:59.862Z,100109.50
2023-01-20T08:51:29.349Z,100121.94
2023-01-20T08:53:55.963Z,100136.34
2023-01-20T08:56:23.041Z,100138.88
2023-01-20T08:58:50.002Z,100142.53
2023-01-20T09:01:37.892Z,100159.69
2023-01-20T09:04:07.126Z,100166.63
2023-01-20T09:06:55.462Z,100172.97
2023-01-20T09:09:22.892Z,100195.41
2023-01-20T09:11:52.428Z,100196.53
2023-01-20T09:14:21.336Z,100196.25
2023-01-20T09:16:48.574Z,100205.06
2023-01-20T09:19:15.101Z,100229.97
2023-01-20T09:21:43.036Z,100247.41
2023-01-20T09:24:10.010Z,100250.97
2023-01-20T09:26:39.366Z,100249.50
2023-01-20T09:29:11.456Z,100271.56
2023-01-20T09:31:39.903Z,100290.28
2023-01-20T09:34:06.808Z,100304.19
2023-01-20T09:36:33.324Z,100302.13
2023-01-20T09:39:18.139Z,100309.16
2023-01-20T09:42:07.276Z,100316.09
2023-01-20T09:44:53.377Z,100309.69
2023-01-20T09:47:31.139Z,100313.88
2023-01-20T09:50:48.009Z,100323.41
2023-01-20T09:53:32.775Z,100329.59
2023-01-20T09:56:09.353Z,100349.88
2023-01-20T09:58:50.759Z,100368.41
2023-01-20T10:01:48.029Z,100374.22
2023-01-20T10:04:26.227Z,100379.28
2023-01-20T10:06:59.568Z,100387.19
2023-01-20T10:09:45.395Z,100397.19
2023-01-20T10:12:21.645Z,100400.72
2023-01-20T10:14:58.483Z,100414.59
2023-01-20T10:17:40.158Z,100412.16
2023-01-20T10:20:32.003Z,100413.25
2023-01-20T10:23:08.727Z,100414.59
2023-01-20T10:25:48.538Z,100411.81
2023-01-20T10:28:19.267Z,100428.97
2023-01-20T10:30:47.403Z,100438.78
2023-01-20T10:33:22.048Z,100442.59
2023-01-20T10:35:52.171Z,100446.88
2023-01-20T10:38:33.376Z,100442.44
2023-01-20T10:41:19.816Z,100449.34
2023-01-20T10:43:47.672Z,100455.41
2023-01-20T10:46:20.120Z,100471.22
2023-01-20T10:49:25.573Z,100462.97
2023-01-20T10:51:59.988Z,100466.97
2023-01-20T10:54:35.771Z,100468.06
2023-01-20T10:57:05.485Z,100470.84
2023-01-20T10:59:37.376Z,100460.38
2023-01-20T11:02:15.286Z,100466.97
2023-01-20T11:04:42.297Z,100471.56
2023-01-20T11:07:15.514Z,100467.66
2023-01-20T11:09:42.671Z,100464.81
2023-01-20T11:12:42.734Z,100459.78
2023-01-20T11:15:21.212Z,100463.84
2023-01-20T11:18:20.510Z,100476.22
2023-01-20T11:21:00.456Z,100467.91
2023-01-20T11:23:38.727Z,100461.06
2023-01-20T11:26:17.478Z,100465.00
2023-01-20T11:28:46.144Z,100457.25
2023-01-20T11:31:13.582Z,100465.38
2023-01-20T11:33:40.260Z,100462.09
2023-01-20T11:36:33.246Z,100459.78
2023-01-20T11:38:59.892Z,100458.53
2023-01-20T11:41:31.107Z,100460.66
2023-01-20T11:43:59.868Z,100457.38
2023-01-20T11:46:26.415Z,100450.38
2023-01-20T11:49:11.883Z,100458.72
2023-01-20T11:51:55.059Z,100458.09
2023-01-20T11:54:26.992Z,100461.84
2023-01-20T11:57:09.420Z,100451.22
2023-01-20T11:59:46.967Z,100450.09
2023-01-20T12:02:14.042Z,100448.41
2023-01-20T12:05:08.305Z,100442.13
2023-01-20T12:07:41.006Z,100443.34
2023-01-20T12:10:19.098Z,100438.44
2023-01-20T12:12:52.312Z,100431.13
2023-01-20T12:15:25.298Z,100443.03
2023-01-20T12:17:58.545Z,100434.25
2023-01-20T12:20:49.227Z,100439.31
2023-01-20T12:23:39.227Z,100434.50
2023-01-20T12:26:06.789Z,100426.91
2023-01-20T12:28:52.129Z,100418.34
2023-01-20T12:31:20.555Z,100422.59
2023-01-20T12:34:12.308Z,100413.78
2023-01-20T12:36:57.530Z,100412.84
2023-01-20T12:39:27.691Z,100417.69
2023-01-20T12:42:11.458Z,100414.44
2023-01-20T12:44:56.489Z,100408.59
2023-01-20T12:47:32.254Z,100403.47
2023-01-20T12:50:16.131Z,100403.00
2023-01-20T12:52:51.936Z,100398.66
2023-01-20T12:55:23.245Z,100405.78
2023-01-20T12:58:14.395Z,100396.94
2023-01-20T13:00:56.100Z,100401.91
2023-01-20T13:03:47.042Z,100395.88
2023-01-20T13:06:23.272Z,100408.97
2023-01-20T13:09:27.146Z,100407.38
2023-01-20T13:12:06.352Z,100400.28
2023-01-20T13:14:40.763Z,100401.38
2023-01-20T13:17:36.113Z,100392.81
2023-01-20T13:20:05.006Z,100400.59
2023-01-20T13:22:31.738Z,100394.53
2023-01-20T13:25:04.679Z,100390.66
2023-01-20T13:27:37.372Z,100387.75
2023-01-20T13:30:28.490Z,100386.38
2023-01-20T13:33:04.456Z,100385.38
2023-01-20T13:35:32.433Z,100380.25
2023-01-20T13:38:02.843Z,100385.44
2023-01-20T13:40:38.457Z,100389.00
2023-01-20T13:43:26.298Z,100378.88
2023-01-20T13:46:04.778Z,100382.19
2023-01-20T13:48:35.814Z,100390.84
2023-01-20T13:51:26.562Z,100378.22
2023-01-20T13:53:53.434Z,100379.84
2023-01-20T13:56:30.594Z,100381.50
2023-01-20T13:59:00.167Z,100387.47
2023-01-20T14:01:28.083Z,100380.66
2023-01-20T14:04:05.952Z,100390.59
2023-01-20T14:06:35.967Z,100387.84
2023-01-20T14:09:03.606Z,100379.75
2023-01-20T14:11:31.421Z,100397.97
2023-01-20T14:14:03.085Z,100391.72
2023-01-20T14:16:37.392Z,100388.53
2023-01-20T14:19:22.487Z,100389.50
2023-01-20T14:21:53.142Z,100383.56
2023-01-20T14:24:30.443Z,100384.41
2023-01-20T14:27:14.275Z,100389.50
2023-01-20T14:29:40.859Z,100390.78
2023-01-20T14:32:35.277Z,100383.66
2023-01-20T14:35:04.417Z,100393.13
2023-01-20T14:37:38.235Z,100394.84
2023-01-20T14:40:08.094Z,100391.25
2023-01-20T14:42:34.774Z,100395.44
2023-01-20T14:45:01.314Z,100395.56
2023-01-20T14:47:31.524Z,100390.28
2023-01-20T14:49:58.115Z,100395.16
2023-01-20T14:52:28.752Z,100397.28
2023-01-20T14:54:59.001Z,100403.94
2023-01-20T14:57:30.066Z,100401.22
2023-01-20T15:00:15.124Z,100406.88
2023-01-20T15:03:09.971Z,100407.84
2023-01-20T15:05:38.445Z,100414.19
2023-01-20T15:08:24.380Z,100414.66
2023-01-20T15:11:18.964Z,100414.28
2023-01-20T15:13:51.379Z,100422.44
2023-01-20T15:16:23.844Z,100415.03
2023-01-20T15:19:22.773Z,100425.50
2023-01-20T15:21:52.617Z,100426.06
2023-01-20T15:24:22.403Z,100428.78
2023-01-20T15:26:51.931Z,100416.59
2023-01-20T15:29:25.688Z,100417.00
2023-01-20T15:31:53.999Z,100424.72
2023-01-20T15:34:21.722Z,100434.66
2023-01-20T15:36:50.079Z,100425.59
2023-01-20T15:39:18.652Z,100435.13
2023-01-20T15:41:46.616Z,100434.38
2023-01-20T15:44:16.011Z,100433.88
2023-01-20T15:46:42.670Z,100428.03
2023-01-20T15:49:12.950Z,100440.81
2023-01-20T15:51:39.581Z,100441.66
2023-01-20T15:54:09.343Z,100443.31
2023-01-20T15:56:38.835Z,100441.28
2023-01-20T15:59:17.493Z,100451.91
2023-01-20T16:01:49.940Z,100449.06
2023-01-20T16:04:16.715Z,100450.72
2023-01-20T16:06:43.917Z,100438.34
2023-01-20T16:09:24.315Z,100444.97
2023-01-20T16:11:50.879Z,100447.34
2023-01-20T16:14:17.380Z,100450.06
2023-01-20T16:16:43.919Z,100443.22
2023-01-20T16:19:14.129Z,100444.09
2023-01-20T16:21:41.974Z,100445.66
2023-01-20T16:24:09.603Z,100445.38
2023-01-20T16:26:36.220Z,100454.59
2023-01-20T16:29:04.857Z,100452.16
2023-01-20T16:31:32.483Z,100459.28
2023-01-20T16:33:59.124Z,100464.13
2023-01-20T16:36:25.986Z,100466.66
2023-01-20T16:38:52.915Z,100473.78
2023-01-20T16:41:28.857Z,100458.50
2023-01-20T16:43:56.102Z,100460.81
2023-01-20T16:46:26.127Z,100469.84
2023-01-20T16:49:03.477Z,100459.25
2023-01-20T16:51:31.331Z,100465.94
2023-01-20T16:53:58.268Z,100462.88
2023-01-20T16:56:28.065Z,100471.97
2023-01-20T16:59:00.526Z,100474.03
2023-01-20T17:01:29.013Z,100467.31
2023-01-20T17:04:01.224Z,100468.59
2023-01-20T17:06:30.655Z,100480.16
2023-01-20T17:08:59.321Z,100495.22
2023-01-20T17:11:35.241Z,100495.47
2023-01-20T17:14:04.174Z,100495.88
2023-01-20T17:16:31.609Z,100493.88
2023-01-20T17:19:00.413Z,100500.38
2023-01-20T17:21:29.878Z,100500.66
2023-01-20T17:23:59.946Z,100504.22
2023-01-20T17:26:26.537Z,100505.22
2023-01-20T17:28:58.584Z,100498.50
2023-01-20T17:31:25.694Z,100504.09
2023-01-20T17:33:52.598Z,100502.44
2023-01-20T17:36:19.411Z,100499.47
2023-01-20T17:38:46.347Z,100502.94
2023-01-20T17:41:14.115Z,100502.06
2023-01-20T17:43:44.134Z,100498.78
2023-01-20T17:46:25.473Z,100508.56
2023-01-20T17:48:51.989Z,100506.59
2023-01-20T17:51:21.188Z,100508.13
2023-01-20T17:53:48.180Z,100509.69
2023-01-20T17:56:16.007Z,100511.22
2023-01-20T17:58:44.107Z,100516.03
2023-01-20T18:01:14.815Z,100520.69
2023-01-20T18:03:43.201Z,100514.94
2023-01-20T18:06:15.046Z,100519.25
2023-01-20T18:08:42.106Z,100518.47
2023-01-20T18:11:16.740Z,100520.22
2023-01-20T18:13:45.868Z,100522.53
2023-01-20T18:16:15.798Z,100527.03
2023-01-20T18:18:43.832Z,100525.28
2023-01-20T18:21:12.993Z,100520.22
2023-01-20T18:23:40.808Z,100526.81
2023-01-20T18:26:08.707Z,100525.16
2023-01-20T18:28:36.367Z,100529.34
2023-01-20T18:31:08.588Z,100526.81
2023-01-20T18:33:41.032Z,100532.06
2023-01-20T18:36:09.406Z,100534.50
2023-01-20T18:38:36.078Z,100526.94
2023-01-20T18:41:03.259Z,100535.72
2023-01-20T18:43:30.812Z,100538.34
2023-01-20T18:45:57.355Z,100541.22
2023-01-20T18:48:25.408Z,100539.56
2023-01-20T18:50:53.134Z,100540.56
2023-01-20T18:53:19.674Z,100549.03
2023-01-20T18:55:46.202Z,100549.44
2023-01-20T18:58:16.338Z,100550.03
2023-01-20T19:00:43.611Z,100543.66
2023-01-20T19:03:11.786Z,100547.38
2023-01-20T19:05:38.371Z,100544.59
2023-01-20T19:08:05.167Z,100539.53
2023-01-20T19:10:31.759Z,100543.69
2023-01-20T19:12:58.327Z,100550.84
2023-01-20T19:15:25.082Z,100551.06
2023-01-20T19:17:51.951Z,100548.34
2023-01-20T19:20:18.729Z,100546.47
2023-01-20T19:22:45.321Z,100545.16
2023-01-20T19:25:11.851Z,100551.44
2023-01-20T19:27:38.406Z,100545.03
2023-01-20T19:30:05.940Z,100543.16
2023-01-20T19:32:32.439Z,100544.47
2023-01-20T19:34:58.994Z,100549.84
2023-01-20T19:37:25.719Z,100545.03
2023-01-20T19:39:52.207Z,100545.56
2023-01-20T19:42:18.761Z,100549.19
2023-01-20T19:44:45.280Z,100561.81
2023-01-20T19:47:11.783Z,100555.75
2023-01-20T19:49:38.363Z,100556.31
2023-01-20T19:52:05.910Z,100554.47
2023-01-20T19:54:33.580Z,100554.25
2023-01-20T19:57:00.588Z,100553.13
2023-01-20T19:59:27.127Z,100552.25
2023-01-20T20:01:53.682Z,100553.03
2023-01-20T20:04:20.704Z,100552.78
2023-01-20T20:06:48.787Z,100551.34
2023-01-20T20:09:21.230Z,100549.28
2023-01-20T20:11:49.505Z,100555.97
2023-01-20T20:14:18.350Z,100549.16
2023-01-20T20:16:46.594Z,100548.91
2023-01-20T20:19:16.164Z,100539.16
2023-01-20T20:21:43.123Z,100544.75
2023-01-20T20:24:15.067Z,100547.94
2023-01-20T20:26:42.139Z,100551.31
2023-01-20T20:29:10.323Z,100536.16
2023-01-20T20:31:38.244Z,100546.03
2023-01-20T20:34:07.638Z,100544.19
2023-01-20T20:36:34.944Z,100544.09
2023-01-20T20:39:04.971Z,100540.66
2023-01-20T20:41:33.272Z,100541.88
2023-01-20T20:44:01.088Z,100543.75
2023-01-20T20:46:29.301Z,100552.09
2023-01-20T20:48:59.244Z,100537.94
2023-01-20T20:51:26.727Z,100542.88
2023-01-20T20:53:55.430Z,100534.31
2023-01-20T20:56:22.500Z,100536.72
2023-01-20T20:59:01.080Z,100531.59
2023-01-20T21:01:30.557Z,100531.59
2023-01-20T21:03:57.977Z,100529.66
2023-01-20T21:06:25.404Z,100532.88
2023-01-20T21:08:52.793Z,100526.94
2023-01-20T21:11:20.369Z,100536.25
2023-01-20T21:13:49.442Z,100531.66
2023-01-20T21:16:20.716Z,100533.97
2023-01-20T21:18:47.754Z,100526.41
2023-01-20T21:21:17.110Z,100530.25
2023-01-20T21:23:50.142Z,100526.84
2023-01-20T21:26:16.749Z,100532.00
2023-01-20T21:28:44.400Z,100531.13
2023-01-20T21:31:14.333Z,100534.53
2023-01-20T21:33:42.807Z,100533.66
2023-01-20T21:36:12.400Z,100524.09
2023-01-20T21:38:42.973Z,100523.88
2023-01-20T21:41:11.114Z,100519.47
2023-01-20T21:43:59.270Z,100523.63
2023-01-20T21:46:28.471Z,100515.72
2023-01-20T21:49:13.935Z,100517.34
2023-01-20T21:51:59.070Z,100514.06
2023-01-20T21:54:29.162Z,100507.13
2023-01-20T21:56:56.238Z,100501.34
2023-01-20T21:59:23.194Z,100507.03
2023-01-20T22:01:51.721Z,100505.41
2023-01-20T22:04:18.845Z,100504.50
2023-01-20T22:06:45.755Z,100500.34
2023-01-20T22:09:12.932Z,100486.81
2023-01-20T22:11:39.540Z,100488.25
2023-01-20T22:14:06.205Z,100488.69
2023-01-20T22:16:32.717Z,100477.41
2023-01-20T22:18:59.266Z,100472.97
2023-01-20T22:21:26.335Z,100474.28
2023-01-20T22:23:53.688Z,100455.88
2023-01-20T22:26:20.333Z,100446.09
2023-01-20T22:28:46.975Z,100436.72
2023-01-20T22:31:17.676Z,100425.53
2023-01-20T22:33:44.254Z,100418.28
2023-01-20T22:36:10.790Z,100412.03
2023-01-20T22:38:37.399Z,100405.50
2023-01-20T22:41:05.826Z,100397.28
2023-01-20T22:43:33.850Z,100396.22
2023-01-20T22:46:02.178Z,100385.78
2023-01-20T22:48:31.059Z,100382.28
2023-01-20T22:51:05.752Z,100379.63
2023-01-20T22:53:32.243Z,100374.59
2023-01-20T22:56:06.759Z,100368.03
2023-01-20T22:58:34.710Z,100362.16
2023-01-20T23:01:01.824Z,100363.28
2023-01-20T23:03:28.871Z,100362.16
2023-01-20T23:05:57.837Z,100357.44
2023-01-20T23:08:25.973Z,100351.97
2023-01-20T23:10:57.965Z,100353.44
2023-01-20T23:13:24.593Z,100347.72
2023-01-20T23:15:51.375Z,100341.59
2023-01-20T23:18:18.899Z,100337.84
2023-01-20T23:20:50.842Z,100335.22
2023-01-20T23:23:18.643Z,100333.81
2023-01-20T23:25:46.123Z,100330.38
2023-01-20T23:28:13.461Z,100330.81
2023-01-20T23:30:40.157Z,100329.69
2023-01-20T23:33:07.595Z,100327.44
2023-01-20T23:35:38.901Z,100326.53
2023-01-20T23:38:08.801Z,100322.81
2023-01-20T23:40:35.940Z,100322.34
2023-01-20T23:43:02.524Z,100322.66
2023-01-20T23:45:29.138Z,100318.81
2023-01-20T23:47:55.740Z,100307.97
2023-01-20T23:50:22.332Z,100304.53
2023-01-20T23:52:48.955Z,100294.94
2023-01-20T23:55:15.853Z,100299.97
2023-01-20T23:57:42.740Z,100293.25
